METAR stanice u blizini

 

LYBE - Beograd / Surčin, Srbija
Ažurirano: 17/10/2019 15:00
Vedro
Vedro
 Pravac vetra varies
Vetar: varies 4 km/h
Temperatura: 24°C
Tačka rose: 11°C
Vlažnost: 44%
Pritisak: 1018 hPa
Pregled: Vedro
Vidljivost: greater than 10 km
2019/10/17 13:00 LYBE 171300Z VRB02KT CAVOK 24/11 Q1018 NOSIG
LYBT - Beograd / Batajnica, Srbija
Ažurirano: 17/10/2019 15:00
Vedro
Vedro
 Pravac vetra varies
Vetar: varies 2 km/h
Temperatura: 24°C
Tačka rose: 13°C
Vlažnost: 50%
Pritisak: 1018 hPa
Pregled: Vedro
Vidljivost: greater than 10 km
2019/10/17 13:00 LYBT 171300Z VRB01KT CAVOK 24/13 Q1018 NOSIG
LYVR - Vršac, Srbija
Ažurirano: 17/10/2019 15:00
Vedro
Vedro
 Pravac vetra JZ
Vetar: JZ 2 km/h
Temperatura: 25°C
Tačka rose: 10°C
Vlažnost: 39%
Pritisak: 1018 hPa
Pregled: Vedro
Vidljivost: greater than 10 km
2019/10/17 13:00 LYVR 171300Z 22001KT CAVOK 25/10 Q1018 NOSIG
 
LYKV - Lađevci, Srbija
Ažurirano: 17/10/2019 15:00
Vedro
Vedro
 Pravac vetra varies
Vetar: varies 4 km/h
Temperatura: 26°C
Tačka rose: 10°C
Vlažnost: 37%
Pritisak: 1017 hPa
Pregled: Vedro
Vidljivost: greater than 10 km
2019/10/17 13:00 LYKV 171300Z VRB02KT CAVOK 26/10 Q1017 NOSIG
LYNI - Niš, Srbija
Ažurirano: 17/10/2019 15:00
Vedro
Vedro
 Pravac vetra SZ
Vetar: SZ 9 km/h
Temperatura: 26°C
Tačka rose: 8°C
Vlažnost: 32%
Pritisak: 1017 hPa
Pregled: Vedro
Vidljivost: greater than 10 km
2019/10/17 13:00 LYNI 171300Z 31005KT 280V340 CAVOK 26/08 Q1017 NOSIG
BKPR - Priština, Srbija
Ažurirano: 17/10/2019 15:00
Few Clouds
Few Clouds
 Pravac vetra varies
Vetar: varies 4 km/h
Temperatura: 25°C
Tačka rose: 6°C
Vlažnost: 30%
Pritisak: 1018 hPa
Oblaci: Few Clouds
Vidljivost: 10 km
Cloud details: Few Clouds 1524 m
2019/10/17 13:00 BKPR 171300Z VRB02KT 9999 FEW050 25/06 Q1018 NOSIG
 
LHPP - Pecs / Pogany, Hungary
Ažurirano: 17/10/2019 14:45
Few Clouds
Few Clouds
 Pravac vetra J
Vetar: J 7 km/h
Temperatura: 21°C
Tačka rose: 13°C
Vlažnost: 60%
Pritisak: 1018 hPa
Oblaci: Few Clouds
Vidljivost: 10 km
Cloud details: Few Clouds 914 m
2019/10/17 12:45 LHPP 171245Z 17004KT 9999 FEW030 21/13 Q1018
LHUD - Szeged, Hungary
Ažurirano: 04/07/2019 01:45
NOT Current
Vedro
Vedro
 Pravac vetra S
Vetar: S 7 km/h
Temperatura: 18°C
Tačka rose: 13°C
Vlažnost: 73%
Pritisak: 1019 hPa
Pregled: Vedro
Vidljivost: greater than 10 km
2019/07/03 23:45 LHUD 032345Z 35004KT CAVOK 18/13 Q1019
LRTR - Timisoara, Romania
Ažurirano: 17/10/2019 15:00
Vedro
Vedro
 Pravac vetra calm
Vetar: Tišina
Temperatura: 25°C
Tačka rose: 9°C
Vlažnost: 36%
Pritisak: 1018 hPa
Pregled: Vedro
Vidljivost: greater than 10 km
2019/10/17 13:00 LRTR 171300Z 00000KT CAVOK 25/09 Q1018 NOSIG
 
LRCV - Craiova, Romania
Ažurirano: 17/10/2019 15:00
Vedro
Vedro
 Pravac vetra JZ
Vetar: JZ 6 km/h
Temperatura: 24°C
Tačka rose: 10°C
Vlažnost: 41%
Pritisak: 1018 hPa
Pregled: Vedro
Vidljivost: greater than 10 km
2019/10/17 13:00 LRCV 171300Z 23003KT 180V290 CAVOK 24/10 Q1018
LBSF - Sofia, Bulgaria
Ažurirano: 17/10/2019 15:00
Vedro
Vedro
 Pravac vetra calm
Vetar: Tišina
Temperatura: 25°C
Tačka rose: 4°C
Vlažnost: 26%
Pritisak: 1018 hPa
Pregled: Vedro
Vidljivost: greater than 10 km
2019/10/17 13:00 LBSF 171300Z 00000KT CAVOK 25/04 Q1018 NOSIG
LWSK - Skoplje, Makedonija
Ažurirano: 17/10/2019 15:00
Vedro
Vedro
 Pravac vetra calm
Vetar: Tišina
Temperatura: 28°C
Tačka rose: 7°C
Vlažnost: 26%
Pritisak: 1017 hPa
Pregled: Vedro
Vidljivost: greater than 10 km
2019/10/17 13:00 LWSK 171300Z 00000KT CAVOK 28/07 Q1017 NOSIG
 
LYPG - Podgorica, Crna Gora
Ažurirano: 17/10/2019 15:00
Few Clouds
Few Clouds
 Pravac vetra J
Vetar: J 6 km/h
Temperatura: 25°C
Tačka rose: 13°C
Vlažnost: 47%
Pritisak: 1017 hPa
Oblaci: Few Clouds
Vidljivost: 10 km
Cloud details: Few Clouds 1219 m
2019/10/17 13:00 LYPG 171300Z 17003KT 120V240 9999 FEW040 25/13 Q1017 NOSIG
LQSA - Sarajevo, Bosna i Hercegovina
Ažurirano: 17/10/2019 15:00
Partly Cloudy
Partly Cloudy
 Pravac vetra varies
Vetar: varies 2 km/h
Temperatura: 22°C
Tačka rose: 11°C
Vlažnost: 50%
Pritisak: 1018 hPa
Oblaci: Partly Cloudy
Vidljivost: 10 km
Cloud details: Partly Cloudy 1372 m
2019/10/17 13:00 LQSA 171300Z VRB01KT 9999 SCT045 22/11 Q1018 NOSIG
LDOS - Osijek, Hrvatksa
Ažurirano: 17/10/2019 15:00
Vedro
Vedro
 Pravac vetra I
Vetar: I 7 km/h
Temperatura: 22°C
Tačka rose: 12°C
Vlažnost: 53%
Pritisak: 1018 hPa
Pregled: Vedro
Vidljivost: greater than 10 km
2019/10/17 13:00 LDOS 171300Z 09004KT 040V120 CAVOK 22/12 Q1018